Check out our new PWSWeather beta!
PWSweather.com
Personal Weather Stations
Station Observations
URBANDALE
Westwind Acres And Meredith Hills, Urbandale, IA 50322

Westwind Acres And Meredith HillsUrbandale, IA 50322

Lat: 41.643, Lon: -93.709

Elevation: 928

Station Type:

http://urbandaleweather.com

High Low Average
Temperature 36.9°F2.7°C 1.2°F-17.1°C 27.2°F-2.7°C
Dew Point 30.7°F-0.7°C -4.5°F-20.3°C 20.0°F-6.7°C
Winds 6.0 mph 9.7 kmh Calm Calm 2.0 mph SW3.2 kmh SW
Wind Gusts 15.0 mph24.1 kmh 0.9 mph1.4 kmh 5.0 mph8.0 kmh
Humidity 90% 64% 75%
Pressure 30.11 in1019.6 mb 29.79 in1008.8 mb -
Precipitation 0.00 in0.0 mm - -
Hour Temp Dew Point Humidity Winds Wind Gusts Pressure Precip Precip Rate Daily Precip Total
12:02 AM 28.6°F-1.9°C 21.0°F-6.1°C 73% 0.9 mph SSW1.4 kmh SSW 2.9 mph4.7 kmh 30.02 in1016.6 mb 0.00 in0.0 mm 0.00 in0.0 mm 0.00 in0.0 mm
12:07 AM 28.6°F-1.9°C 21.0°F-6.1°C 73% 0.9 mph SSE1.4 kmh SSE 2.9 mph4.7 kmh 30.02 in1016.6 mb 0.00 in0.0 mm 0.00 in0.0 mm 0.00 in0.0 mm
12:12 AM 28.8°F-1.8°C 21.2°F-6.0°C 73% 0.9 mph SW1.4 kmh SW 2.9 mph4.7 kmh 30.01 in1016.3 mb 0.00 in0.0 mm 0.00 in0.0 mm 0.00 in0.0 mm
12:17 AM 28.8°F-1.8°C 21.2°F-6.0°C 73% 0.9 mph SW1.4 kmh SW 4.0 mph6.4 kmh 30.01 in1016.3 mb 0.00 in0.0 mm 0.00 in0.0 mm 0.00 in0.0 mm
12:22 AM 28.8°F-1.8°C 21.2°F-6.0°C 73% 0.9 mph SSW1.4 kmh SSW 2.9 mph4.7 kmh 30.02 in1016.6 mb 0.00 in0.0 mm 0.00 in0.0 mm 0.00 in0.0 mm
12:27 AM 28.8°F-1.8°C 21.2°F-6.0°C 73% 0.9 mph SSW1.4 kmh SSW 2.0 mph3.2 kmh 30.01 in1016.3 mb 0.00 in0.0 mm 0.00 in0.0 mm 0.00 in0.0 mm
12:32 AM 28.8°F-1.8°C 21.2°F-6.0°C 73% 0.9 mph SSW1.4 kmh SSW 4.0 mph6.4 kmh 30.01 in1016.3 mb 0.00 in0.0 mm 0.00 in0.0 mm 0.00 in0.0 mm
12:37 AM 28.8°F-1.8°C 20.8°F-6.2°C 72% 2.0 mph SSW3.2 kmh SSW 6.9 mph11.1 kmh 30.01 in1016.3 mb 0.00 in0.0 mm 0.00 in0.0 mm 0.00 in0.0 mm
12:42 AM 28.8°F-1.8°C 20.8°F-6.2°C 72% 2.0 mph S3.2 kmh S 2.9 mph4.7 kmh 30.00 in1015.9 mb 0.00 in0.0 mm 0.00 in0.0 mm 0.00 in0.0 mm
12:47 AM 28.8°F-1.8°C 20.8°F-6.2°C 72% 2.0 mph S3.2 kmh S 2.9 mph4.7 kmh 30.00 in1015.9 mb 0.00 in0.0 mm 0.00 in0.0 mm 0.00 in0.0 mm
12:52 AM 28.8°F-1.8°C 20.8°F-6.2°C 72% 2.0 mph SSW3.2 kmh SSW 5.0 mph8.0 kmh 30.00 in1015.9 mb 0.00 in0.0 mm 0.00 in0.0 mm 0.00 in0.0 mm
12:57 AM 28.8°F-1.8°C 20.8°F-6.2°C 72% 2.0 mph S3.2 kmh S 6.0 mph9.7 kmh 30.00 in1015.9 mb 0.00 in0.0 mm 0.00 in0.0 mm 0.00 in0.0 mm
01:02 AM 28.8°F-1.8°C 20.8°F-6.2°C 72% 2.0 mph SSW3.2 kmh SSW 4.0 mph6.4 kmh 30.00 in1015.9 mb 0.00 in0.0 mm 0.00 in0.0 mm 0.00 in0.0 mm
01:07 AM 28.8°F-1.8°C 20.8°F-6.2°C 72% 2.0 mph SSW3.2 kmh SSW 2.9 mph4.7 kmh 30.00 in1015.9 mb 0.00 in0.0 mm 0.00 in0.0 mm 0.00 in0.0 mm
01:12 AM 28.8°F-1.8°C 20.8°F-6.2°C 72% 0.9 mph SW1.4 kmh SW 2.9 mph4.7 kmh 29.99 in1015.6 mb 0.00 in0.0 mm 0.00 in0.0 mm 0.00 in0.0 mm
01:17 AM 28.8°F-1.8°C 20.8°F-6.2°C 72% 0.9 mph SSW1.4 kmh SSW 4.0 mph6.4 kmh 30.00 in1015.9 mb 0.00 in0.0 mm 0.00 in0.0 mm 0.00 in0.0 mm
01:22 AM 28.8°F-1.8°C 20.8°F-6.2°C 72% 0.9 mph SW1.4 kmh SW 4.0 mph6.4 kmh 30.00 in1015.9 mb 0.00 in0.0 mm 0.00 in0.0 mm 0.00 in0.0 mm
01:27 AM 28.8°F-1.8°C 20.8°F-6.2°C 72% 0.9 mph SSW1.4 kmh SSW 2.9 mph4.7 kmh 29.98 in1015.2 mb 0.00 in0.0 mm 0.00 in0.0 mm 0.00 in0.0 mm
01:32 AM 28.8°F-1.8°C 20.8°F-6.2°C 72% 0.9 mph SSW1.4 kmh SSW 4.9 mph7.9 kmh 29.99 in1015.6 mb 0.00 in0.0 mm 0.00 in0.0 mm 0.00 in0.0 mm
01:37 AM 28.8°F-1.8°C 20.8°F-6.2°C 72% 2.0 mph SSW3.2 kmh SSW 6.9 mph11.1 kmh 29.99 in1015.6 mb 0.00 in0.0 mm 0.00 in0.0 mm 0.00 in0.0 mm
01:42 AM 28.8°F-1.8°C 20.8°F-6.2°C 72% 2.0 mph SW3.2 kmh SW 4.0 mph6.4 kmh 29.99 in1015.6 mb 0.00 in0.0 mm 0.00 in0.0 mm 0.00 in0.0 mm
01:47 AM 28.8°F-1.8°C 20.8°F-6.2°C 72% 2.0 mph SSW3.2 kmh SSW 4.9 mph7.9 kmh 29.98 in1015.2 mb 0.00 in0.0 mm 0.00 in0.0 mm 0.00 in0.0 mm
01:52 AM 28.8°F-1.8°C 20.5°F-6.4°C 71% 2.0 mph S3.2 kmh S 6.0 mph9.7 kmh 29.98 in1015.2 mb 0.00 in0.0 mm 0.00 in0.0 mm 0.00 in0.0 mm
01:57 AM 28.8°F-1.8°C 20.8°F-6.2°C 72% 2.0 mph SW3.2 kmh SW 4.0 mph6.4 kmh 29.98 in1015.2 mb 0.00 in0.0 mm 0.00 in0.0 mm 0.00 in0.0 mm
02:03 AM 28.8°F-1.8°C 20.8°F-6.2°C 72% 0.9 mph SSW1.4 kmh SSW 4.0 mph6.4 kmh 29.98 in1015.2 mb 0.00 in0.0 mm 0.00 in0.0 mm 0.00 in0.0 mm
02:08 AM 28.8°F-1.8°C 20.8°F-6.2°C 72% 2.0 mph SSW3.2 kmh SSW 6.0 mph9.7 kmh 29.98 in1015.2 mb 0.00 in0.0 mm 0.00 in0.0 mm 0.00 in0.0 mm
02:13 AM 28.6°F-1.9°C 20.7°F-6.3°C 72% 2.0 mph S3.2 kmh S 4.0 mph6.4 kmh 29.98 in1015.2 mb 0.00 in0.0 mm 0.00 in0.0 mm 0.00 in0.0 mm
02:18 AM 28.6°F-1.9°C 20.7°F-6.3°C 72% 2.0 mph SSW3.2 kmh SSW 6.0 mph9.7 kmh 29.98 in1015.2 mb 0.00 in0.0 mm 0.00 in0.0 mm 0.00 in0.0 mm
02:23 AM 28.6°F-1.9°C 20.7°F-6.3°C 72% 2.9 mph SW4.7 kmh SW 4.9 mph7.9 kmh 29.98 in1015.2 mb 0.00 in0.0 mm 0.00 in0.0 mm 0.00 in0.0 mm
02:28 AM 28.6°F-1.9°C 20.7°F-6.3°C 72% 2.9 mph S4.7 kmh S 6.0 mph9.7 kmh 29.98 in1015.2 mb 0.00 in0.0 mm 0.00 in0.0 mm 0.00 in0.0 mm
02:33 AM 28.6°F-1.9°C 20.7°F-6.3°C 72% 2.0 mph SSW3.2 kmh SSW 4.0 mph6.4 kmh 29.97 in1014.9 mb 0.00 in0.0 mm 0.00 in0.0 mm 0.00 in0.0 mm
02:38 AM 28.6°F-1.9°C 20.7°F-6.3°C 72% 2.0 mph S3.2 kmh S 6.0 mph9.7 kmh 29.97 in1014.9 mb 0.00 in0.0 mm 0.00 in0.0 mm 0.00 in0.0 mm
02:43 AM 28.4°F-2.0°C 20.5°F-6.4°C 72% 2.0 mph S3.2 kmh S 4.0 mph6.4 kmh 29.97 in1014.9 mb 0.00 in0.0 mm 0.00 in0.0 mm 0.00 in0.0 mm
02:48 AM 28.2°F-2.1°C 20.3°F-6.5°C 72% 2.0 mph SW3.2 kmh SW 2.9 mph4.7 kmh 29.97 in1014.9 mb 0.00 in0.0 mm 0.00 in0.0 mm 0.00 in0.0 mm
02:53 AM 28.2°F-2.1°C 20.7°F-6.3°C 73% 0.9 mph SSW1.4 kmh SSW 2.0 mph3.2 kmh 29.97 in1014.9 mb 0.00 in0.0 mm 0.00 in0.0 mm 0.00 in0.0 mm
02:58 AM 28.2°F-2.1°C 20.7°F-6.3°C 73% 0.9 mph SSW1.4 kmh SSW 2.9 mph4.7 kmh 29.97 in1014.9 mb 0.00 in0.0 mm 0.00 in0.0 mm 0.00 in0.0 mm
03:03 AM 28.2°F-2.1°C 20.7°F-6.3°C 73% 0.9 mph S1.4 kmh S 2.9 mph4.7 kmh 29.97 in1014.9 mb 0.00 in0.0 mm 0.00 in0.0 mm 0.00 in0.0 mm
03:08 AM 28.2°F-2.1°C 20.3°F-6.5°C 72% 0.9 mph SE1.4 kmh SE 2.9 mph4.7 kmh 29.97 in1014.9 mb 0.00 in0.0 mm 0.00 in0.0 mm 0.00 in0.0 mm
03:13 AM 28.2°F-2.1°C 20.3°F-6.5°C 72% 0.9 mph S1.4 kmh S 5.0 mph8.0 kmh 29.97 in1014.9 mb 0.00 in0.0 mm 0.00 in0.0 mm 0.00 in0.0 mm
03:18 AM 28.2°F-2.1°C 20.3°F-6.5°C 72% 0.9 mph SW1.4 kmh SW 2.9 mph4.7 kmh 29.97 in1014.9 mb 0.00 in0.0 mm 0.00 in0.0 mm 0.00 in0.0 mm
03:23 AM 28.4°F-2.0°C 20.5°F-6.4°C 72% 0.9 mph SSW1.4 kmh SSW 4.0 mph6.4 kmh 29.96 in1014.6 mb 0.00 in0.0 mm 0.00 in0.0 mm 0.00 in0.0 mm
03:28 AM 28.6°F-1.9°C 20.7°F-6.3°C 72% 2.0 mph SSW3.2 kmh SSW 4.0 mph6.4 kmh 29.96 in1014.6 mb 0.00 in0.0 mm 0.00 in0.0 mm 0.00 in0.0 mm
03:33 AM 28.8°F-1.8°C 20.5°F-6.4°C 71% 0.9 mph S1.4 kmh S 2.9 mph4.7 kmh 29.95 in1014.2 mb 0.00 in0.0 mm 0.00 in0.0 mm 0.00 in0.0 mm
03:38 AM 28.9°F-1.7°C 20.7°F-6.3°C 71% 2.0 mph S3.2 kmh S 5.0 mph8.0 kmh 29.95 in1014.2 mb 0.00 in0.0 mm 0.00 in0.0 mm 0.00 in0.0 mm
03:43 AM 28.8°F-1.8°C 20.5°F-6.4°C 71% 0.9 mph SSW1.4 kmh SSW 2.9 mph4.7 kmh 29.95 in1014.2 mb 0.00 in0.0 mm 0.00 in0.0 mm 0.00 in0.0 mm
03:48 AM 28.8°F-1.8°C 20.5°F-6.4°C 71% 0.9 mph SSW1.4 kmh SSW 4.0 mph6.4 kmh 29.95 in1014.2 mb 0.00 in0.0 mm 0.00 in0.0 mm 0.00 in0.0 mm
03:53 AM 28.8°F-1.8°C 20.5°F-6.4°C 71% 0.9 mph SW1.4 kmh SW 4.0 mph6.4 kmh 29.94 in1013.9 mb 0.00 in0.0 mm 0.00 in0.0 mm 0.00 in0.0 mm
03:58 AM 28.9°F-1.7°C 20.7°F-6.3°C 71% 0.9 mph SSW1.4 kmh SSW 4.9 mph7.9 kmh 29.94 in1013.9 mb 0.00 in0.0 mm 0.00 in0.0 mm 0.00 in0.0 mm
04:03 AM 28.8°F-1.8°C 20.5°F-6.4°C 71% 0.9 mph SW1.4 kmh SW 2.0 mph3.2 kmh 29.94 in1013.9 mb 0.00 in0.0 mm 0.00 in0.0 mm 0.00 in0.0 mm
04:08 AM 28.8°F-1.8°C 20.5°F-6.4°C 71% Calm Calm 2.0 mph3.2 kmh 29.94 in1013.9 mb 0.00 in0.0 mm 0.00 in0.0 mm 0.00 in0.0 mm
04:13 AM 28.8°F-1.8°C 20.5°F-6.4°C 71% Calm Calm 0.9 mph1.4 kmh 29.94 in1013.9 mb 0.00 in0.0 mm 0.00 in0.0 mm 0.00 in0.0 mm
04:18 AM 28.8°F-1.8°C 20.5°F-6.4°C 71% Calm Calm 2.0 mph3.2 kmh 29.94 in1013.9 mb 0.00 in0.0 mm 0.00 in0.0 mm 0.00 in0.0 mm
04:23 AM 28.6°F-1.9°C 20.3°F-6.5°C 71% Calm Calm 0.9 mph1.4 kmh 29.93 in1013.5 mb 0.00 in0.0 mm 0.00 in0.0 mm 0.00 in0.0 mm
04:28 AM 28.4°F-2.0°C 20.1°F-6.6°C 71% Calm Calm 2.0 mph3.2 kmh 29.93 in1013.5 mb 0.00 in0.0 mm 0.00 in0.0 mm 0.00 in0.0 mm
04:33 AM 28.4°F-2.0°C 20.1°F-6.6°C 71% 0.9 mph SSW1.4 kmh SSW 2.9 mph4.7 kmh 29.92 in1013.2 mb 0.00 in0.0 mm 0.00 in0.0 mm 0.00 in0.0 mm
04:38 AM 28.4°F-2.0°C 20.1°F-6.6°C 71% 0.9 mph SSW1.4 kmh SSW 2.0 mph3.2 kmh 29.92 in1013.2 mb 0.00 in0.0 mm 0.00 in0.0 mm 0.00 in0.0 mm
04:43 AM 28.2°F-2.1°C 20.1°F-6.6°C 71% Calm Calm 0.9 mph1.4 kmh 29.92 in1013.2 mb 0.00 in0.0 mm 0.00 in0.0 mm 0.00 in0.0 mm
04:48 AM 28.2°F-2.1°C 20.3°F-6.5°C 72% Calm Calm 2.9 mph4.7 kmh 29.92 in1013.2 mb 0.00 in0.0 mm 0.00 in0.0 mm 0.00 in0.0 mm
04:53 AM 28.2°F-2.1°C 20.3°F-6.5°C 72% Calm Calm 2.0 mph3.2 kmh 29.91 in1012.9 mb 0.00 in0.0 mm 0.00 in0.0 mm 0.00 in0.0 mm
04:58 AM 28.0°F-2.2°C 20.1°F-6.6°C 72% Calm Calm 2.0 mph3.2 kmh 29.91 in1012.9 mb 0.00 in0.0 mm 0.00 in0.0 mm 0.00 in0.0 mm
05:03 AM 28.2°F-2.1°C 20.3°F-6.5°C 72% 0.9 mph SW1.4 kmh SW 4.0 mph6.4 kmh 29.91 in1012.9 mb 0.00 in0.0 mm 0.00 in0.0 mm 0.00 in0.0 mm
05:08 AM 28.2°F-2.1°C 20.3°F-6.5°C 72% 0.9 mph SSW1.4 kmh SSW 2.0 mph3.2 kmh 29.92 in1013.2 mb 0.00 in0.0 mm 0.00 in0.0 mm 0.00 in0.0 mm
05:13 AM 28.0°F-2.2°C 20.1°F-6.6°C 72% 0.9 mph SSW1.4 kmh SSW 2.9 mph4.7 kmh 29.92 in1013.2 mb 0.00 in0.0 mm 0.00 in0.0 mm 0.00 in0.0 mm
05:18 AM 28.2°F-2.1°C 20.1°F-6.6°C 71% 0.9 mph S1.4 kmh S 4.9 mph7.9 kmh 29.91 in1012.9 mb 0.00 in0.0 mm 0.00 in0.0 mm 0.00 in0.0 mm
05:23 AM 28.2°F-2.1°C 20.1°F-6.6°C 71% 2.0 mph S3.2 kmh S 4.0 mph6.4 kmh 29.92 in1013.2 mb 0.00 in0.0 mm 0.00 in0.0 mm 0.00 in0.0 mm
05:28 AM 28.6°F-1.9°C 20.3°F-6.5°C 71% 2.0 mph SSW3.2 kmh SSW 2.9 mph4.7 kmh 29.91 in1012.9 mb 0.00 in0.0 mm 0.00 in0.0 mm 0.00 in0.0 mm
05:33 AM 28.6°F-1.9°C 20.3°F-6.5°C 71% 0.9 mph SSW1.4 kmh SSW 2.9 mph4.7 kmh 29.91 in1012.9 mb 0.00 in0.0 mm 0.00 in0.0 mm 0.00 in0.0 mm
05:38 AM 28.6°F-1.9°C 20.3°F-6.5°C 71% 0.9 mph SW1.4 kmh SW 2.9 mph4.7 kmh 29.91 in1012.9 mb 0.00 in0.0 mm 0.00 in0.0 mm 0.00 in0.0 mm
05:43 AM 28.4°F-2.0°C 20.1°F-6.6°C 71% 0.9 mph SSW1.4 kmh SSW 2.0 mph3.2 kmh 29.90 in1012.5 mb 0.00 in0.0 mm 0.00 in0.0 mm 0.00 in0.0 mm
05:48 AM 28.4°F-2.0°C 20.1°F-6.6°C 71% 0.9 mph S1.4 kmh S 3.0 mph4.8 kmh 29.90 in1012.5 mb 0.00 in0.0 mm 0.00 in0.0 mm 0.00 in0.0 mm
05:53 AM 28.4°F-2.0°C 20.1°F-6.6°C 71% 0.9 mph SSW1.4 kmh SSW 2.9 mph4.7 kmh 29.89 in1012.2 mb 0.00 in0.0 mm 0.00 in0.0 mm 0.00 in0.0 mm
05:58 AM 28.2°F-2.1°C 20.1°F-6.6°C 71% 0.9 mph SSE1.4 kmh SSE 2.0 mph3.2 kmh 29.89 in1012.2 mb 0.00 in0.0 mm 0.00 in0.0 mm 0.00 in0.0 mm
06:03 AM 28.2°F-2.1°C 20.1°F-6.6°C 71% 0.9 mph S1.4 kmh S 2.9 mph4.7 kmh 29.89 in1012.2 mb 0.00 in0.0 mm 0.00 in0.0 mm 0.00 in0.0 mm
06:08 AM 28.2°F-2.1°C 20.1°F-6.6°C 71% 0.9 mph S1.4 kmh S 6.0 mph9.7 kmh 29.89 in1012.2 mb 0.00 in0.0 mm 0.00 in0.0 mm 0.00 in0.0 mm
06:13 AM 28.0°F-2.2°C 19.9°F-6.7°C 71% 0.9 mph SSW1.4 kmh SSW 2.0 mph3.2 kmh 29.89 in1012.2 mb 0.00 in0.0 mm 0.00 in0.0 mm 0.00 in0.0 mm
06:18 AM 28.0°F-2.2°C 20.1°F-6.6°C 72% 0.9 mph SSW1.4 kmh SSW 3.0 mph4.8 kmh 29.89 in1012.2 mb 0.00 in0.0 mm 0.00 in0.0 mm 0.00 in0.0 mm
06:23 AM 28.0°F-2.2°C 20.1°F-6.6°C 72% 0.9 mph SSW1.4 kmh SSW 4.9 mph7.9 kmh 29.88 in1011.9 mb 0.00 in0.0 mm 0.00 in0.0 mm 0.00 in0.0 mm
06:28 AM 28.0°F-2.2°C 20.1°F-6.6°C 72% 0.9 mph SSW1.4 kmh SSW 4.0 mph6.4 kmh 29.88 in1011.9 mb 0.00 in0.0 mm 0.00 in0.0 mm 0.00 in0.0 mm
06:33 AM 28.2°F-2.1°C 20.3°F-6.5°C 72% 0.9 mph S1.4 kmh S 2.0 mph3.2 kmh 29.88 in1011.9 mb 0.00 in0.0 mm 0.00 in0.0 mm 0.00 in0.0 mm
06:38 AM 28.2°F-2.1°C 20.3°F-6.5°C 72% 0.9 mph S1.4 kmh S 4.0 mph6.4 kmh 29.88 in1011.9 mb 0.00 in0.0 mm 0.00 in0.0 mm 0.00 in0.0 mm
06:43 AM 28.4°F-2.0°C 20.5°F-6.4°C 72% 0.9 mph SSW1.4 kmh SSW 4.0 mph6.4 kmh 29.88 in1011.9 mb 0.00 in0.0 mm 0.00 in0.0 mm 0.00 in0.0 mm
06:48 AM 28.4°F-2.0°C 20.5°F-6.4°C 72% 0.9 mph S1.4 kmh S 2.9 mph4.7 kmh 29.88 in1011.9 mb 0.00 in0.0 mm 0.00 in0.0 mm 0.00 in0.0 mm
06:53 AM 28.6°F-1.9°C 20.7°F-6.3°C 72% 2.0 mph SSW3.2 kmh SSW 4.0 mph6.4 kmh 29.88 in1011.9 mb 0.00 in0.0 mm 0.00 in0.0 mm 0.00 in0.0 mm
06:58 AM 28.4°F-2.0°C 20.5°F-6.4°C 72% 2.0 mph S3.2 kmh S 4.0 mph6.4 kmh 29.88 in1011.9 mb 0.00 in0.0 mm 0.00 in0.0 mm 0.00 in0.0 mm
07:03 AM 28.4°F-2.0°C 20.5°F-6.4°C 72% 2.0 mph SSW3.2 kmh SSW 6.0 mph9.7 kmh 29.88 in1011.9 mb 0.00 in0.0 mm 0.00 in0.0 mm 0.00 in0.0 mm
07:08 AM 28.6°F-1.9°C 20.7°F-6.3°C 72% 2.0 mph S3.2 kmh S 4.0 mph6.4 kmh 29.87 in1011.5 mb 0.00 in0.0 mm 0.00 in0.0 mm 0.00 in0.0 mm
07:13 AM 28.6°F-1.9°C 20.7°F-6.3°C 72% 2.0 mph SSW3.2 kmh SSW 6.0 mph9.7 kmh 29.87 in1011.5 mb 0.00 in0.0 mm 0.00 in0.0 mm 0.00 in0.0 mm
07:18 AM 28.6°F-1.9°C 20.7°F-6.3°C 72% 2.0 mph SSW3.2 kmh SSW 4.9 mph7.9 kmh 29.87 in1011.5 mb 0.00 in0.0 mm 0.00 in0.0 mm 0.00 in0.0 mm
07:23 AM 28.8°F-1.8°C 20.8°F-6.2°C 72% 2.0 mph S3.2 kmh S 4.9 mph7.9 kmh 29.88 in1011.9 mb 0.00 in0.0 mm 0.00 in0.0 mm 0.00 in0.0 mm
07:28 AM 28.8°F-1.8°C 20.8°F-6.2°C 72% 2.0 mph SSW3.2 kmh SSW 4.0 mph6.4 kmh 29.88 in1011.9 mb 0.00 in0.0 mm 0.00 in0.0 mm 0.00 in0.0 mm
07:33 AM 28.9°F-1.7°C 21.0°F-6.1°C 72% 2.0 mph S3.2 kmh S 6.0 mph9.7 kmh 29.88 in1011.9 mb 0.00 in0.0 mm 0.00 in0.0 mm 0.00 in0.0 mm
07:38 AM 28.9°F-1.7°C 21.0°F-6.1°C 72% 2.0 mph S3.2 kmh S 6.0 mph9.7 kmh 29.88 in1011.9 mb 0.00 in0.0 mm 0.00 in0.0 mm 0.00 in0.0 mm
07:43 AM 28.9°F-1.7°C 21.0°F-6.1°C 72% 2.0 mph SSW3.2 kmh SSW 4.0 mph6.4 kmh 29.89 in1012.2 mb 0.00 in0.0 mm 0.00 in0.0 mm 0.00 in0.0 mm
07:48 AM 29.1°F-1.6°C 21.2°F-6.0°C 72% 2.0 mph S3.2 kmh S 4.9 mph7.9 kmh 29.89 in1012.2 mb 0.00 in0.0 mm 0.00 in0.0 mm 0.00 in0.0 mm
07:53 AM 29.1°F-1.6°C 21.2°F-6.0°C 72% 2.0 mph S3.2 kmh S 4.0 mph6.4 kmh 29.89 in1012.2 mb 0.00 in0.0 mm 0.00 in0.0 mm 0.00 in0.0 mm
07:58 AM 29.5°F-1.4°C 21.6°F-5.8°C 72% 2.0 mph SSW3.2 kmh SSW 5.0 mph8.0 kmh 29.89 in1012.2 mb 0.00 in0.0 mm 0.00 in0.0 mm 0.00 in0.0 mm
08:03 AM 29.7°F-1.3°C 21.7°F-5.7°C 72% 2.0 mph SSW3.2 kmh SSW 4.9 mph7.9 kmh 29.89 in1012.2 mb 0.00 in0.0 mm 0.00 in0.0 mm 0.00 in0.0 mm
08:08 AM 29.7°F-1.3°C 21.7°F-5.7°C 72% 0.9 mph SSE1.4 kmh SSE 4.0 mph6.4 kmh 29.90 in1012.5 mb 0.00 in0.0 mm 0.00 in0.0 mm 0.00 in0.0 mm
08:13 AM 29.8°F-1.2°C 21.9°F-5.6°C 72% 0.9 mph S1.4 kmh S 4.9 mph7.9 kmh 29.89 in1012.2 mb 0.00 in0.0 mm 0.00 in0.0 mm 0.00 in0.0 mm
08:18 AM 30.0°F-1.1°C 21.7°F-5.7°C 71% 2.0 mph SW3.2 kmh SW 4.0 mph6.4 kmh 29.89 in1012.2 mb 0.00 in0.0 mm 0.00 in0.0 mm 0.00 in0.0 mm
08:23 AM 30.2°F-1.0°C 21.9°F-5.6°C 71% 0.9 mph S1.4 kmh S 2.0 mph3.2 kmh 29.89 in1012.2 mb 0.00 in0.0 mm 0.00 in0.0 mm 0.00 in0.0 mm
08:28 AM 30.4°F-0.9°C 22.5°F-5.3°C 72% 0.9 mph S1.4 kmh S 2.9 mph4.7 kmh 29.90 in1012.5 mb 0.00 in0.0 mm 0.00 in0.0 mm 0.00 in0.0 mm
08:33 AM 30.6°F-0.8°C 21.9°F-5.6°C 70% 2.0 mph SSW3.2 kmh SSW 6.0 mph9.7 kmh 29.90 in1012.5 mb 0.00 in0.0 mm 0.00 in0.0 mm 0.00 in0.0 mm
08:38 AM 30.9°F-0.6°C 22.6°F-5.2°C 71% 2.0 mph S3.2 kmh S 2.9 mph4.7 kmh 29.90 in1012.5 mb 0.00 in0.0 mm 0.00 in0.0 mm 0.00 in0.0 mm
08:43 AM 31.1°F-0.5°C 22.5°F-5.3°C 70% 0.9 mph S1.4 kmh S 4.0 mph6.4 kmh 29.90 in1012.5 mb 0.00 in0.0 mm 0.00 in0.0 mm 0.00 in0.0 mm
08:48 AM 31.3°F-0.4°C 22.6°F-5.2°C 70% 0.9 mph S1.4 kmh S 2.9 mph4.7 kmh 29.90 in1012.5 mb 0.00 in0.0 mm 0.00 in0.0 mm 0.00 in0.0 mm
08:53 AM 31.5°F-0.3°C 22.8°F-5.1°C 70% 0.9 mph SSW1.4 kmh SSW 4.0 mph6.4 kmh 29.90 in1012.5 mb 0.00 in0.0 mm 0.00 in0.0 mm 0.00 in0.0 mm
08:58 AM 31.6°F-0.2°C 23.0°F-5.0°C 70% 0.9 mph S1.4 kmh S 2.0 mph3.2 kmh 29.90 in1012.5 mb 0.00 in0.0 mm 0.00 in0.0 mm 0.00 in0.0 mm
09:03 AM 31.8°F-0.1°C 22.8°F-5.1°C 69% 0.9 mph SSW1.4 kmh SSW 3.0 mph4.8 kmh 29.90 in1012.5 mb 0.00 in0.0 mm 0.00 in0.0 mm 0.00 in0.0 mm
09:08 AM 31.8°F-0.1°C 22.8°F-5.1°C 69% 0.9 mph S1.4 kmh S 4.0 mph6.4 kmh 29.90 in1012.5 mb 0.00 in0.0 mm 0.00 in0.0 mm 0.00 in0.0 mm
09:13 AM 32.0°F0.0°C 23.4°F-4.8°C 70% 0.9 mph S1.4 kmh S 2.0 mph3.2 kmh 29.90 in1012.5 mb 0.00 in0.0 mm 0.00 in0.0 mm 0.00 in0.0 mm
09:18 AM 32.2°F0.1°C 23.2°F-4.9°C 69% Calm Calm 2.0 mph3.2 kmh 29.90 in1012.5 mb 0.00 in0.0 mm 0.00 in0.0 mm 0.00 in0.0 mm
09:24 AM 32.4°F0.2°C 23.4°F-4.8°C 69% 0.9 mph SSW1.4 kmh SSW 3.0 mph4.8 kmh 29.89 in1012.2 mb 0.00 in0.0 mm 0.00 in0.0 mm 0.00 in0.0 mm
09:29 AM 32.7°F0.4°C 23.7°F-4.6°C 69% 0.9 mph SSW1.4 kmh SSW 4.0 mph6.4 kmh 29.89 in1012.2 mb 0.00 in0.0 mm 0.00 in0.0 mm 0.00 in0.0 mm
09:34 AM 32.9°F0.5°C 23.5°F-4.7°C 68% Calm Calm 2.9 mph4.7 kmh 29.90 in1012.5 mb 0.00 in0.0 mm 0.00 in0.0 mm 0.00 in0.0 mm
09:39 AM 33.3°F0.7°C 23.5°F-4.7°C 67% 0.9 mph SSW1.4 kmh SSW 4.9 mph7.9 kmh 29.89 in1012.2 mb 0.00 in0.0 mm 0.00 in0.0 mm 0.00 in0.0 mm
09:44 AM 33.6°F0.9°C 23.9°F-4.5°C 67% 0.9 mph SW1.4 kmh SW 2.9 mph4.7 kmh 29.89 in1012.2 mb 0.00 in0.0 mm 0.00 in0.0 mm 0.00 in0.0 mm
09:49 AM 34.0°F1.1°C 24.3°F-4.3°C 67% 0.9 mph SW1.4 kmh SW 2.9 mph4.7 kmh 29.89 in1012.2 mb 0.00 in0.0 mm 0.00 in0.0 mm 0.00 in0.0 mm
09:54 AM 34.2°F1.2°C 23.5°F-4.7°C 65% 0.9 mph SW1.4 kmh SW 2.0 mph3.2 kmh 29.89 in1012.2 mb 0.00 in0.0 mm 0.00 in0.0 mm 0.00 in0.0 mm
09:59 AM 34.5°F1.4°C 23.9°F-4.5°C 65% 0.9 mph S1.4 kmh S 2.9 mph4.7 kmh 29.88 in1011.9 mb 0.00 in0.0 mm 0.00 in0.0 mm 0.00 in0.0 mm
10:04 AM 34.9°F1.6°C 23.9°F-4.5°C 64% 0.9 mph SSE1.4 kmh SSE 2.9 mph4.7 kmh 29.87 in1011.5 mb 0.00 in0.0 mm 0.00 in0.0 mm 0.00 in0.0 mm
10:09 AM 35.1°F1.7°C 24.1°F-4.4°C 64% 0.9 mph S1.4 kmh S 2.0 mph3.2 kmh 29.87 in1011.5 mb 0.00 in0.0 mm 0.00 in0.0 mm 0.00 in0.0 mm
10:14 AM 35.2°F1.8°C 24.3°F-4.3°C 64% 0.9 mph SSE1.4 kmh SSE 2.0 mph3.2 kmh 29.87 in1011.5 mb 0.00 in0.0 mm 0.00 in0.0 mm 0.00 in0.0 mm
10:19 AM 35.2°F1.8°C 24.3°F-4.3°C 64% 0.9 mph SSE1.4 kmh SSE 6.0 mph9.7 kmh 29.87 in1011.5 mb 0.00 in0.0 mm 0.00 in0.0 mm 0.00 in0.0 mm
10:24 AM 35.2°F1.8°C 24.3°F-4.3°C 64% 0.9 mph SW1.4 kmh SW 6.0 mph9.7 kmh 29.87 in1011.5 mb 0.00 in0.0 mm 0.00 in0.0 mm 0.00 in0.0 mm
10:29 AM 35.2°F1.8°C 24.3°F-4.3°C 64% 2.0 mph S3.2 kmh S 4.9 mph7.9 kmh 29.87 in1011.5 mb 0.00 in0.0 mm 0.00 in0.0 mm 0.00 in0.0 mm
10:34 AM 35.2°F1.8°C 24.3°F-4.3°C 64% 2.0 mph SSW3.2 kmh SSW 4.9 mph7.9 kmh 29.87 in1011.5 mb 0.00 in0.0 mm 0.00 in0.0 mm 0.00 in0.0 mm
10:39 AM 35.2°F1.8°C 24.3°F-4.3°C 64% 2.0 mph SSW3.2 kmh SSW 4.9 mph7.9 kmh 29.87 in1011.5 mb 0.00 in0.0 mm 0.00 in0.0 mm 0.00 in0.0 mm
10:44 AM 35.2°F1.8°C 24.6°F-4.1°C 65% 2.0 mph S3.2 kmh S 4.9 mph7.9 kmh 29.87 in1011.5 mb 0.00 in0.0 mm 0.00 in0.0 mm 0.00 in0.0 mm
10:49 AM 35.2°F1.8°C 24.6°F-4.1°C 65% 2.0 mph S3.2 kmh S 7.0 mph11.3 kmh 29.87 in1011.5 mb 0.00 in0.0 mm 0.00 in0.0 mm 0.00 in0.0 mm
10:54 AM 35.2°F1.8°C 24.3°F-4.3°C 64% 2.9 mph S4.7 kmh S 10.0 mph16.1 kmh 29.88 in1011.9 mb 0.00 in0.0 mm 0.00 in0.0 mm 0.00 in0.0 mm
10:59 AM 35.2°F1.8°C 24.3°F-4.3°C 64% 2.9 mph S4.7 kmh S 8.1 mph13.0 kmh 29.89 in1012.2 mb 0.00 in0.0 mm 0.00 in0.0 mm 0.00 in0.0 mm
11:04 AM 35.2°F1.8°C 24.6°F-4.1°C 65% 2.0 mph SSW3.2 kmh SSW 4.0 mph6.4 kmh 29.88 in1011.9 mb 0.00 in0.0 mm 0.00 in0.0 mm 0.00 in0.0 mm
11:09 AM 35.2°F1.8°C 24.6°F-4.1°C 65% 2.0 mph SSE3.2 kmh SSE 4.9 mph7.9 kmh 29.88 in1011.9 mb 0.00 in0.0 mm 0.00 in0.0 mm 0.00 in0.0 mm
11:14 AM 35.4°F1.9°C 24.8°F-4.0°C 65% 2.0 mph SSE3.2 kmh SSE 8.1 mph13.0 kmh 29.88 in1011.9 mb 0.00 in0.0 mm 0.00 in0.0 mm 0.00 in0.0 mm
11:19 AM 35.4°F1.9°C 24.8°F-4.0°C 65% 2.9 mph S4.7 kmh S 6.0 mph9.7 kmh 29.86 in1011.2 mb 0.00 in0.0 mm 0.00 in0.0 mm 0.00 in0.0 mm
11:24 AM 35.4°F1.9°C 24.4°F-4.2°C 64% 2.9 mph S4.7 kmh S 8.1 mph13.0 kmh 29.86 in1011.2 mb 0.00 in0.0 mm 0.00 in0.0 mm 0.00 in0.0 mm
11:29 AM 35.6°F2.0°C 24.6°F-4.1°C 64% 2.9 mph S4.7 kmh S 9.0 mph14.5 kmh 29.86 in1011.2 mb 0.00 in0.0 mm 0.00 in0.0 mm 0.00 in0.0 mm
11:34 AM 35.8°F2.1°C 24.8°F-4.0°C 64% 2.9 mph SSW4.7 kmh SSW 6.0 mph9.7 kmh 29.86 in1011.2 mb 0.00 in0.0 mm 0.00 in0.0 mm 0.00 in0.0 mm
11:39 AM 35.8°F2.1°C 24.8°F-4.0°C 64% 2.0 mph SW3.2 kmh SW 9.0 mph14.5 kmh 29.86 in1011.2 mb 0.00 in0.0 mm 0.00 in0.0 mm 0.00 in0.0 mm
11:44 AM 36.0°F2.2°C 25.0°F-3.9°C 64% 2.0 mph SSE3.2 kmh SSE 6.0 mph9.7 kmh 29.86 in1011.2 mb 0.00 in0.0 mm 0.00 in0.0 mm 0.00 in0.0 mm
11:49 AM 36.0°F2.2°C 25.3°F-3.7°C 65% 2.9 mph SSW4.7 kmh SSW 6.0 mph9.7 kmh 29.86 in1011.2 mb 0.00 in0.0 mm 0.00 in0.0 mm 0.00 in0.0 mm
11:54 AM 36.0°F2.2°C 25.0°F-3.9°C 64% 2.9 mph SSW4.7 kmh SSW 6.9 mph11.1 kmh 29.86 in1011.2 mb 0.00 in0.0 mm 0.00 in0.0 mm 0.00 in0.0 mm
11:59 AM 36.0°F2.2°C 25.3°F-3.7°C 65% 2.0 mph S3.2 kmh S 4.9 mph7.9 kmh 29.85 in1010.8 mb 0.00 in0.0 mm 0.00 in0.0 mm 0.00 in0.0 mm
12:04 PM 36.1°F2.3°C 25.5°F-3.6°C 65% 0.9 mph SW1.4 kmh SW 2.9 mph4.7 kmh 29.84 in1010.5 mb 0.00 in0.0 mm 0.00 in0.0 mm 0.00 in0.0 mm
12:09 PM 36.3°F2.4°C 25.3°F-3.7°C 64% 0.9 mph SSW1.4 kmh SSW 4.9 mph7.9 kmh 29.84 in1010.5 mb 0.00 in0.0 mm 0.00 in0.0 mm 0.00 in0.0 mm
12:14 PM 36.3°F2.4°C 25.7°F-3.5°C 65% 0.9 mph SW1.4 kmh SW 2.9 mph4.7 kmh 29.84 in1010.5 mb 0.00 in0.0 mm 0.00 in0.0 mm 0.00 in0.0 mm
12:19 PM 36.5°F2.5°C 25.9°F-3.4°C 65% 0.9 mph SSW1.4 kmh SSW 2.9 mph4.7 kmh 29.84 in1010.5 mb 0.00 in0.0 mm 0.00 in0.0 mm 0.00 in0.0 mm
12:24 PM 36.5°F2.5°C 25.9°F-3.4°C 65% Calm Calm 2.9 mph4.7 kmh 29.84 in1010.5 mb 0.00 in0.0 mm 0.00 in0.0 mm 0.00 in0.0 mm
12:29 PM 36.5°F2.5°C 25.5°F-3.6°C 64% 0.9 mph SW1.4 kmh SW 2.9 mph4.7 kmh 29.83 in1010.2 mb 0.00 in0.0 mm 0.00 in0.0 mm 0.00 in0.0 mm
12:34 PM 36.5°F2.5°C 25.9°F-3.4°C 65% 0.9 mph S1.4 kmh S 2.9 mph4.7 kmh 29.83 in1010.2 mb 0.00 in0.0 mm 0.00 in0.0 mm 0.00 in0.0 mm
12:39 PM 36.5°F2.5°C 25.9°F-3.4°C 65% 0.9 mph SSW1.4 kmh SSW 2.9 mph4.7 kmh 29.82 in1009.8 mb 0.00 in0.0 mm 0.00 in0.0 mm 0.00 in0.0 mm
12:44 PM 36.7°F2.6°C 26.1°F-3.3°C 65% 0.9 mph SW1.4 kmh SW 2.9 mph4.7 kmh 29.83 in1010.2 mb 0.00 in0.0 mm 0.00 in0.0 mm 0.00 in0.0 mm
12:49 PM 36.5°F2.5°C 25.9°F-3.4°C 65% 0.9 mph SSW1.4 kmh SSW 6.0 mph9.7 kmh 29.82 in1009.8 mb 0.00 in0.0 mm 0.00 in0.0 mm 0.00 in0.0 mm
12:54 PM 36.5°F2.5°C 26.2°F-3.2°C 66% 2.0 mph SW3.2 kmh SW 4.0 mph6.4 kmh 29.82 in1009.8 mb 0.00 in0.0 mm 0.00 in0.0 mm 0.00 in0.0 mm
12:59 PM 36.5°F2.5°C 26.2°F-3.2°C 66% 2.0 mph SSW3.2 kmh SSW 4.0 mph6.4 kmh 29.81 in1009.5 mb 0.00 in0.0 mm 0.00 in0.0 mm 0.00 in0.0 mm
01:04 PM 36.5°F2.5°C 26.2°F-3.2°C 66% 2.0 mph SW3.2 kmh SW 6.0 mph9.7 kmh 29.81 in1009.5 mb 0.00 in0.0 mm 0.00 in0.0 mm 0.00 in0.0 mm
01:09 PM 36.7°F2.6°C 26.8°F-2.9°C 67% 2.0 mph SW3.2 kmh SW 4.0 mph6.4 kmh 29.81 in1009.5 mb 0.00 in0.0 mm 0.00 in0.0 mm 0.00 in0.0 mm
01:14 PM 36.7°F2.6°C 26.8°F-2.9°C 67% 0.9 mph SW1.4 kmh SW 4.0 mph6.4 kmh 29.81 in1009.5 mb 0.00 in0.0 mm 0.00 in0.0 mm 0.00 in0.0 mm
01:19 PM 36.7°F2.6°C 26.8°F-2.9°C 67% 0.9 mph SSW1.4 kmh SSW 4.0 mph6.4 kmh 29.81 in1009.5 mb 0.00 in0.0 mm 0.00 in0.0 mm 0.00 in0.0 mm
01:24 PM 36.7°F2.6°C 26.8°F-2.9°C 67% 0.9 mph SW1.4 kmh SW 2.9 mph4.7 kmh 29.81 in1009.5 mb 0.00 in0.0 mm 0.00 in0.0 mm 0.00 in0.0 mm
01:29 PM 36.7°F2.6°C 27.1°F-2.7°C 68% 0.9 mph SSW1.4 kmh SSW 2.0 mph3.2 kmh 29.81 in1009.5 mb 0.00 in0.0 mm 0.00 in0.0 mm 0.00 in0.0 mm
01:34 PM 36.7°F2.6°C 27.1°F-2.7°C 68% 0.9 mph SSW1.4 kmh SSW 5.0 mph8.0 kmh 29.81 in1009.5 mb 0.00 in0.0 mm 0.00 in0.0 mm 0.00 in0.0 mm
01:39 PM 36.7°F2.6°C 27.1°F-2.7°C 68% 0.9 mph SSE1.4 kmh SSE 2.9 mph4.7 kmh 29.81 in1009.5 mb 0.00 in0.0 mm 0.00 in0.0 mm 0.00 in0.0 mm
01:44 PM 36.7°F2.6°C 27.1°F-2.7°C 68% 0.9 mph SSW1.4 kmh SSW 4.9 mph7.9 kmh 29.81 in1009.5 mb 0.00 in0.0 mm 0.00 in0.0 mm 0.00 in0.0 mm
01:49 PM 36.7°F2.6°C 27.1°F-2.7°C 68% 2.0 mph SSW3.2 kmh SSW 6.9 mph11.1 kmh 29.80 in1009.1 mb 0.00 in0.0 mm 0.00 in0.0 mm 0.00 in0.0 mm
01:54 PM 36.5°F2.5°C 27.0°F-2.8°C 68% 2.0 mph S3.2 kmh S 4.0 mph6.4 kmh 29.80 in1009.1 mb 0.00 in0.0 mm 0.00 in0.0 mm 0.00 in0.0 mm
01:59 PM 36.5°F2.5°C 27.3°F-2.6°C 69% 0.9 mph S1.4 kmh S 2.0 mph3.2 kmh 29.80 in1009.1 mb 0.00 in0.0 mm 0.00 in0.0 mm 0.00 in0.0 mm
02:04 PM 36.7°F2.6°C 27.5°F-2.5°C 69% 0.9 mph SW1.4 kmh SW 4.0 mph6.4 kmh 29.80 in1009.1 mb 0.00 in0.0 mm 0.00 in0.0 mm 0.00 in0.0 mm
02:09 PM 36.7°F2.6°C 27.5°F-2.5°C 69% 2.0 mph S3.2 kmh S 4.9 mph7.9 kmh 29.80 in1009.1 mb 0.00 in0.0 mm 0.00 in0.0 mm 0.00 in0.0 mm
02:14 PM 36.7°F2.6°C 27.5°F-2.5°C 69% 2.0 mph SSW3.2 kmh SSW 4.0 mph6.4 kmh 29.80 in1009.1 mb 0.00 in0.0 mm 0.00 in0.0 mm 0.00 in0.0 mm
02:19 PM 36.9°F2.7°C 27.7°F-2.4°C 69% 2.0 mph SW3.2 kmh SW 2.9 mph4.7 kmh 29.80 in1009.1 mb 0.00 in0.0 mm 0.00 in0.0 mm 0.00 in0.0 mm
02:24 PM 36.9°F2.7°C 27.7°F-2.4°C 69% 2.0 mph SSE3.2 kmh SSE 4.0 mph6.4 kmh 29.80 in1009.1 mb 0.00 in0.0 mm 0.00 in0.0 mm 0.00 in0.0 mm
02:29 PM 36.7°F2.6°C 27.5°F-2.5°C 69% 2.0 mph SSW3.2 kmh SSW 4.0 mph6.4 kmh 29.79 in1008.8 mb 0.00 in0.0 mm 0.00 in0.0 mm 0.00 in0.0 mm
02:34 PM 36.7°F2.6°C 27.5°F-2.5°C 69% 2.0 mph SW3.2 kmh SW 8.0 mph12.9 kmh 29.79 in1008.8 mb 0.00 in0.0 mm 0.00 in0.0 mm 0.00 in0.0 mm
02:39 PM 36.7°F2.6°C 27.5°F-2.5°C 69% 2.0 mph WSW3.2 kmh WSW 6.0 mph9.7 kmh 29.80 in1009.1 mb 0.00 in0.0 mm 0.00 in0.0 mm 0.00 in0.0 mm
02:44 PM 36.7°F2.6°C 27.9°F-2.3°C 70% 2.0 mph S3.2 kmh S 6.0 mph9.7 kmh 29.79 in1008.8 mb 0.00 in0.0 mm 0.00 in0.0 mm 0.00 in0.0 mm
02:49 PM 36.5°F2.5°C 27.7°F-2.4°C 70% 2.0 mph SW3.2 kmh SW 6.9 mph11.1 kmh 29.79 in1008.8 mb 0.00 in0.0 mm 0.00 in0.0 mm 0.00 in0.0 mm
02:54 PM 36.5°F2.5°C 27.7°F-2.4°C 70% 2.0 mph S3.2 kmh S 4.0 mph6.4 kmh 29.79 in1008.8 mb 0.00 in0.0 mm 0.00 in0.0 mm 0.00 in0.0 mm
02:59 PM 36.5°F2.5°C 27.7°F-2.4°C 70% 0.9 mph SW1.4 kmh SW 4.9 mph7.9 kmh 29.79 in1008.8 mb 0.00 in0.0 mm 0.00 in0.0 mm 0.00 in0.0 mm
03:04 PM 36.7°F2.6°C 28.2°F-2.1°C 71% 0.9 mph SW1.4 kmh SW 6.9 mph11.1 kmh 29.80 in1009.1 mb 0.00 in0.0 mm 0.00 in0.0 mm 0.00 in0.0 mm
03:09 PM 36.5°F2.5°C 28.0°F-2.2°C 71% 0.9 mph WSW1.4 kmh WSW 4.0 mph6.4 kmh 29.80 in1009.1 mb 0.00 in0.0 mm 0.00 in0.0 mm 0.00 in0.0 mm
03:14 PM 36.7°F2.6°C 28.2°F-2.1°C 71% 0.9 mph SW1.4 kmh SW 2.0 mph3.2 kmh 29.79 in1008.8 mb 0.00 in0.0 mm 0.00 in0.0 mm 0.00 in0.0 mm
03:19 PM 36.5°F2.5°C 28.0°F-2.2°C 71% Calm Calm 3.0 mph4.8 kmh 29.80 in1009.1 mb 0.00 in0.0 mm 0.00 in0.0 mm 0.00 in0.0 mm
03:24 PM 36.3°F2.4°C 28.2°F-2.1°C 72% 0.9 mph SW1.4 kmh SW 2.9 mph4.7 kmh 29.81 in1009.5 mb 0.00 in0.0 mm 0.00 in0.0 mm 0.00 in0.0 mm
03:29 PM 36.1°F2.3°C 28.0°F-2.2°C 72% 0.9 mph SW1.4 kmh SW 2.0 mph3.2 kmh 29.80 in1009.1 mb 0.00 in0.0 mm 0.00 in0.0 mm 0.00 in0.0 mm
03:34 PM 36.1°F2.3°C 28.4°F-2.0°C 73% Calm Calm 2.0 mph3.2 kmh 29.80 in1009.1 mb 0.00 in0.0 mm 0.00 in0.0 mm 0.00 in0.0 mm
03:39 PM 36.0°F2.2°C 28.2°F-2.1°C 73% Calm Calm 4.0 mph6.4 kmh 29.81 in1009.5 mb 0.00 in0.0 mm 0.00 in0.0 mm 0.00 in0.0 mm
03:44 PM 36.0°F2.2°C 28.4°F-2.0°C 74% 0.9 mph WSW1.4 kmh WSW 4.9 mph7.9 kmh 29.81 in1009.5 mb 0.00 in0.0 mm 0.00 in0.0 mm 0.00 in0.0 mm
03:49 PM 35.8°F2.1°C 28.6°F-1.9°C 75% 0.9 mph SW1.4 kmh SW 4.0 mph6.4 kmh 29.81 in1009.5 mb 0.00 in0.0 mm 0.00 in0.0 mm 0.00 in0.0 mm
03:54 PM 35.8°F2.1°C 28.6°F-1.9°C 75% 0.9 mph SW1.4 kmh SW 4.0 mph6.4 kmh 29.81 in1009.5 mb 0.00 in0.0 mm 0.00 in0.0 mm 0.00 in0.0 mm
03:59 PM 35.6°F2.0°C 28.8°F-1.8°C 76% 0.9 mph S1.4 kmh S 2.9 mph4.7 kmh 29.81 in1009.5 mb 0.00 in0.0 mm 0.00 in0.0 mm 0.00 in0.0 mm
04:05 PM 35.4°F1.9°C 28.6°F-1.9°C 76% 0.9 mph WSW1.4 kmh WSW 2.9 mph4.7 kmh 29.81 in1009.5 mb 0.00 in0.0 mm 0.00 in0.0 mm 0.00 in0.0 mm
04:10 PM 35.4°F1.9°C 28.9°F-1.7°C 77% 0.9 mph SSW1.4 kmh SSW 4.0 mph6.4 kmh 29.81 in1009.5 mb 0.00 in0.0 mm 0.00 in0.0 mm 0.00 in0.0 mm
04:15 PM 35.4°F1.9°C 28.9°F-1.7°C 77% 0.9 mph SSW1.4 kmh SSW 2.9 mph4.7 kmh 29.81 in1009.5 mb 0.00 in0.0 mm 0.00 in0.0 mm 0.00 in0.0 mm
04:20 PM 35.2°F1.8°C 28.8°F-1.8°C 77% 0.9 mph SSW1.4 kmh SSW 4.9 mph7.9 kmh 29.81 in1009.5 mb 0.00 in0.0 mm 0.00 in0.0 mm 0.00 in0.0 mm
04:25 PM 35.2°F1.8°C 29.1°F-1.6°C 78% 0.9 mph SW1.4 kmh SW 6.0 mph9.7 kmh 29.81 in1009.5 mb 0.00 in0.0 mm 0.00 in0.0 mm 0.00 in0.0 mm
04:30 PM 35.2°F1.8°C 29.1°F-1.6°C 78% 2.0 mph SW3.2 kmh SW 4.0 mph6.4 kmh 29.81 in1009.5 mb 0.00 in0.0 mm 0.00 in0.0 mm 0.00 in0.0 mm
04:35 PM 35.1°F1.7°C 29.1°F-1.6°C 79% 0.9 mph SW1.4 kmh SW 4.0 mph6.4 kmh 29.81 in1009.5 mb 0.00 in0.0 mm 0.00 in0.0 mm 0.00 in0.0 mm
04:40 PM 35.1°F1.7°C 29.1°F-1.6°C 79% 0.9 mph S1.4 kmh S 2.0 mph3.2 kmh 29.81 in1009.5 mb 0.00 in0.0 mm 0.00 in0.0 mm 0.00 in0.0 mm
04:45 PM 35.1°F1.7°C 29.5°F-1.4°C 80% Calm Calm 2.0 mph3.2 kmh 29.81 in1009.5 mb 0.00 in0.0 mm 0.00 in0.0 mm 0.00 in0.0 mm
04:50 PM 35.1°F1.7°C 29.5°F-1.4°C 80% 0.9 mph SW1.4 kmh SW 4.0 mph6.4 kmh 29.81 in1009.5 mb 0.00 in0.0 mm 0.00 in0.0 mm 0.00 in0.0 mm
04:55 PM 34.9°F1.6°C 29.7°F-1.3°C 81% 0.9 mph SSW1.4 kmh SSW 2.9 mph4.7 kmh 29.81 in1009.5 mb 0.00 in0.0 mm 0.00 in0.0 mm 0.00 in0.0 mm
05:00 PM 34.9°F1.6°C 29.7°F-1.3°C 81% Calm Calm 0.9 mph1.4 kmh 29.81 in1009.5 mb 0.00 in0.0 mm 0.00 in0.0 mm 0.00 in0.0 mm
05:05 PM 34.9°F1.6°C 30.0°F-1.1°C 82% Calm Calm 2.0 mph3.2 kmh 29.81 in1009.5 mb 0.00 in0.0 mm 0.00 in0.0 mm 0.00 in0.0 mm
05:10 PM 34.7°F1.5°C 30.0°F-1.1°C 83% Calm Calm 2.0 mph3.2 kmh 29.81 in1009.5 mb 0.00 in0.0 mm 0.00 in0.0 mm 0.00 in0.0 mm
05:15 PM 34.5°F1.4°C 29.8°F-1.2°C 83% 0.9 mph SSW1.4 kmh SSW 4.0 mph6.4 kmh 29.82 in1009.8 mb 0.00 in0.0 mm 0.00 in0.0 mm 0.00 in0.0 mm
05:20 PM 34.5°F1.4°C 30.2°F-1.0°C 84% 0.9 mph SW1.4 kmh SW 2.9 mph4.7 kmh 29.82 in1009.8 mb 0.00 in0.0 mm 0.00 in0.0 mm 0.00 in0.0 mm
05:25 PM 34.3°F1.3°C 30.6°F-0.8°C 86% 0.9 mph S1.4 kmh S 4.9 mph7.9 kmh 29.82 in1009.8 mb 0.00 in0.0 mm 0.00 in0.0 mm 0.00 in0.0 mm
05:30 PM 34.2°F1.2°C 30.7°F-0.7°C 87% 0.9 mph SW1.4 kmh SW 4.0 mph6.4 kmh 29.83 in1010.2 mb 0.00 in0.0 mm 0.00 in0.0 mm 0.00 in0.0 mm
05:35 PM 34.0°F1.1°C 30.6°F-0.8°C 87% Calm Calm 2.9 mph4.7 kmh 29.83 in1010.2 mb 0.00 in0.0 mm 0.00 in0.0 mm 0.00 in0.0 mm
05:40 PM 33.8°F1.0°C 30.6°F-0.8°C 88% Calm Calm 2.9 mph4.7 kmh 29.83 in1010.2 mb 0.00 in0.0 mm 0.00 in0.0 mm 0.00 in0.0 mm
05:45 PM 33.6°F0.9°C 30.4°F-0.9°C 88% Calm Calm 2.9 mph4.7 kmh 29.83 in1010.2 mb 0.00 in0.0 mm 0.00 in0.0 mm 0.00 in0.0 mm
05:50 PM 33.6°F0.9°C 30.7°F-0.7°C 89% Calm Calm 0.9 mph1.4 kmh 29.84 in1010.5 mb 0.00 in0.0 mm 0.00 in0.0 mm 0.00 in0.0 mm
05:55 PM 33.6°F0.9°C 30.7°F-0.7°C 89% Calm Calm 2.9 mph4.7 kmh 29.84 in1010.5 mb 0.00 in0.0 mm 0.00 in0.0 mm 0.00 in0.0 mm
06:00 PM 33.4°F0.8°C 30.7°F-0.7°C 90% Calm Calm 2.0 mph3.2 kmh 29.84 in1010.5 mb 0.00 in0.0 mm 0.00 in0.0 mm 0.00 in0.0 mm
06:05 PM 33.3°F0.7°C 30.6°F-0.8°C 90% Calm Calm 3.0 mph4.8 kmh 29.84 in1010.5 mb 0.00 in0.0 mm 0.00 in0.0 mm 0.00 in0.0 mm
06:10 PM 32.4°F0.2°C 28.9°F-1.7°C 87% 2.0 mph NNW3.2 kmh NNW 10.1 mph16.3 kmh 29.86 in1011.2 mb 0.00 in0.0 mm 0.00 in0.0 mm 0.00 in0.0 mm
06:15 PM 29.5°F-1.4°C 26.1°F-3.3°C 87% 4.0 mph NNW6.4 kmh NNW 11.0 mph17.7 kmh 29.87 in1011.5 mb 0.00 in0.0 mm 0.00 in0.0 mm 0.00 in0.0 mm
06:20 PM 27.5°F-2.5°C 24.1°F-4.4°C 87% 4.9 mph NW7.9 kmh NW 10.1 mph16.3 kmh 29.87 in1011.5 mb 0.00 in0.0 mm 0.00 in0.0 mm 0.00 in0.0 mm
06:25 PM 26.1°F-3.3°C 23.2°F-4.9°C 89% 4.0 mph NNW6.4 kmh NNW 8.9 mph14.3 kmh 29.88 in1011.9 mb 0.00 in0.0 mm 0.00 in0.0 mm 0.00 in0.0 mm
06:30 PM 24.8°F-4.0°C 21.7°F-5.7°C 88% 4.0 mph N6.4 kmh N 12.1 mph19.5 kmh 29.89 in1012.2 mb 0.00 in0.0 mm 0.00 in0.0 mm 0.00 in0.0 mm
06:35 PM 23.7°F-4.6°C 21.0°F-6.1°C 89% 4.9 mph NW7.9 kmh NW 15.0 mph24.1 kmh 29.89 in1012.2 mb 0.00 in0.0 mm 0.00 in0.0 mm 0.00 in0.0 mm
06:40 PM 23.2°F-4.9°C 20.5°F-6.4°C 89% 4.9 mph N7.9 kmh N 11.0 mph17.7 kmh 29.90 in1012.5 mb 0.00 in0.0 mm 0.00 in0.0 mm 0.00 in0.0 mm
06:45 PM 21.9°F-5.6°C 18.9°F-7.3°C 88% 6.0 mph NNW9.7 kmh NNW 14.1 mph22.7 kmh 29.90 in1012.5 mb 0.00 in0.0 mm 0.00 in0.0 mm 0.00 in0.0 mm
06:50 PM 21.2°F-6.0°C 18.5°F-7.5°C 89% 6.0 mph NE9.7 kmh NE 13.0 mph20.9 kmh 29.90 in1012.5 mb 0.00 in0.0 mm 0.00 in0.0 mm 0.00 in0.0 mm
06:55 PM 20.8°F-6.2°C 18.3°F-7.6°C 90% 4.9 mph NW7.9 kmh NW 11.0 mph17.7 kmh 29.91 in1012.9 mb 0.00 in0.0 mm 0.00 in0.0 mm 0.00 in0.0 mm
07:00 PM 20.7°F-6.3°C 18.1°F-7.7°C 90% 4.9 mph NNW7.9 kmh NNW 14.1 mph22.7 kmh 29.91 in1012.9 mb 0.00 in0.0 mm 0.00 in0.0 mm 0.00 in0.0 mm
07:05 PM 20.3°F-6.5°C 17.8°F-7.9°C 90% 4.9 mph NNW7.9 kmh NNW 11.0 mph17.7 kmh 29.91 in1012.9 mb 0.00 in0.0 mm 0.00 in0.0 mm 0.00 in0.0 mm
07:10 PM 19.9°F-6.7°C 17.4°F-8.1°C 90% 4.0 mph NNW6.4 kmh NNW 8.9 mph14.3 kmh 29.92 in1013.2 mb 0.00 in0.0 mm 0.00 in0.0 mm 0.00 in0.0 mm
07:15 PM 19.9°F-6.7°C 17.4°F-8.1°C 90% 2.9 mph NNW4.7 kmh NNW 10.0 mph16.1 kmh 29.92 in1013.2 mb 0.00 in0.0 mm 0.00 in0.0 mm 0.00 in0.0 mm
07:20 PM 19.6°F-6.9°C 16.9°F-8.4°C 89% 4.0 mph N6.4 kmh N 10.1 mph16.3 kmh 29.93 in1013.5 mb 0.00 in0.0 mm 0.00 in0.0 mm 0.00 in0.0 mm
07:25 PM 18.7°F-7.4°C 15.8°F-9.0°C 88% 4.9 mph NW7.9 kmh NW 12.1 mph19.5 kmh 29.93 in1013.5 mb 0.00 in0.0 mm 0.00 in0.0 mm 0.00 in0.0 mm
07:30 PM 18.0°F-7.8°C 15.1°F-9.4°C 88% 4.9 mph N7.9 kmh N 14.1 mph22.7 kmh 29.93 in1013.5 mb 0.00 in0.0 mm 0.00 in0.0 mm 0.00 in0.0 mm
07:35 PM 17.2°F-8.2°C 14.0°F-10.0°C 87% 4.9 mph N7.9 kmh N 8.9 mph14.3 kmh 29.93 in1013.5 mb 0.00 in0.0 mm 0.00 in0.0 mm 0.00 in0.0 mm
07:40 PM 16.9°F-8.4°C 14.0°F-10.0°C 88% 4.9 mph N7.9 kmh N 11.0 mph17.7 kmh 29.94 in1013.9 mb 0.00 in0.0 mm 0.00 in0.0 mm 0.00 in0.0 mm
07:45 PM 16.9°F-8.4°C 14.2°F-9.9°C 89% 4.0 mph NW6.4 kmh NW 8.9 mph14.3 kmh 29.94 in1013.9 mb 0.00 in0.0 mm 0.00 in0.0 mm 0.00 in0.0 mm
07:50 PM 16.9°F-8.4°C 14.2°F-9.9°C 89% 4.0 mph N6.4 kmh N 11.0 mph17.7 kmh 29.94 in1013.9 mb 0.00 in0.0 mm 0.00 in0.0 mm 0.00 in0.0 mm
07:55 PM 16.2°F-8.8°C 12.9°F-10.6°C 87% 4.0 mph NNW6.4 kmh NNW 13.0 mph20.9 kmh 29.94 in1013.9 mb 0.00 in0.0 mm 0.00 in0.0 mm 0.00 in0.0 mm
08:00 PM 15.4°F-9.2°C 12.2°F-11.0°C 87% 4.9 mph N7.9 kmh N 10.1 mph16.3 kmh 29.95 in1014.2 mb 0.00 in0.0 mm 0.00 in0.0 mm 0.00 in0.0 mm
08:05 PM 15.1°F-9.4°C 11.8°F-11.2°C 87% 4.9 mph WSW7.9 kmh WSW 12.1 mph19.5 kmh 29.95 in1014.2 mb 0.00 in0.0 mm 0.00 in0.0 mm 0.00 in0.0 mm
08:10 PM 14.4°F-9.8°C 11.1°F-11.6°C 87% 2.9 mph NNW4.7 kmh NNW 8.1 mph13.0 kmh 29.95 in1014.2 mb 0.00 in0.0 mm 0.00 in0.0 mm 0.00 in0.0 mm
08:15 PM 13.6°F-10.2°C 10.6°F-11.9°C 87% 2.9 mph NNW4.7 kmh NNW 6.0 mph9.7 kmh 29.96 in1014.6 mb 0.00 in0.0 mm 0.00 in0.0 mm 0.00 in0.0 mm
08:20 PM 12.9°F-10.6°C 9.9°F-12.3°C 87% 2.0 mph NNW3.2 kmh NNW 4.9 mph7.9 kmh 29.96 in1014.6 mb 0.00 in0.0 mm 0.00 in0.0 mm 0.00 in0.0 mm
08:25 PM 12.6°F-10.8°C 9.7°F-12.4°C 88% 2.0 mph NW3.2 kmh NW 4.9 mph7.9 kmh 29.97 in1014.9 mb 0.00 in0.0 mm 0.00 in0.0 mm 0.00 in0.0 mm
08:30 PM 12.4°F-10.9°C 9.5°F-12.5°C 88% 2.0 mph NW3.2 kmh NW 8.1 mph13.0 kmh 29.97 in1014.9 mb 0.00 in0.0 mm 0.00 in0.0 mm 0.00 in0.0 mm
08:35 PM 12.0°F-11.1°C 9.0°F-12.8°C 87% 2.0 mph NW3.2 kmh NW 4.9 mph7.9 kmh 29.97 in1014.9 mb 0.00 in0.0 mm 0.00 in0.0 mm 0.00 in0.0 mm
08:40 PM 11.8°F-11.2°C 9.0°F-12.8°C 88% 2.0 mph N3.2 kmh N 12.1 mph19.5 kmh 29.97 in1014.9 mb 0.00 in0.0 mm 0.00 in0.0 mm 0.00 in0.0 mm
08:45 PM 11.8°F-11.2°C 9.0°F-12.8°C 88% 2.0 mph NW3.2 kmh NW 4.0 mph6.4 kmh 29.97 in1014.9 mb 0.00 in0.0 mm 0.00 in0.0 mm 0.00 in0.0 mm
08:50 PM 11.5°F-11.4°C 8.4°F-13.1°C 87% 2.0 mph N3.2 kmh N 10.0 mph16.1 kmh 29.98 in1015.2 mb 0.00 in0.0 mm 0.00 in0.0 mm 0.00 in0.0 mm
08:55 PM 11.1°F-11.6°C 8.2°F-13.2°C 88% 2.0 mph W3.2 kmh W 4.9 mph7.9 kmh 29.98 in1015.2 mb 0.00 in0.0 mm 0.00 in0.0 mm 0.00 in0.0 mm
09:00 PM 10.9°F-11.7°C 7.9°F-13.4°C 87% 2.0 mph NW3.2 kmh NW 8.9 mph14.3 kmh 29.99 in1015.6 mb 0.00 in0.0 mm 0.00 in0.0 mm 0.00 in0.0 mm
09:05 PM 10.8°F-11.8°C 7.7°F-13.5°C 87% 2.0 mph NW3.2 kmh NW 10.1 mph16.3 kmh 29.99 in1015.6 mb 0.00 in0.0 mm 0.00 in0.0 mm 0.00 in0.0 mm
09:10 PM 10.4°F-12.0°C 7.3°F-13.7°C 87% 2.9 mph NW4.7 kmh NW 10.1 mph16.3 kmh 30.00 in1015.9 mb 0.00 in0.0 mm 0.00 in0.0 mm 0.00 in0.0 mm
09:15 PM 10.0°F-12.2°C 7.0°F-13.9°C 87% 2.9 mph NW4.7 kmh NW 4.0 mph6.4 kmh 30.00 in1015.9 mb 0.00 in0.0 mm 0.00 in0.0 mm 0.00 in0.0 mm
09:20 PM 10.0°F-12.2°C 7.0°F-13.9°C 87% 2.0 mph NW3.2 kmh NW 7.0 mph11.3 kmh 30.00 in1015.9 mb 0.00 in0.0 mm 0.00 in0.0 mm 0.00 in0.0 mm
09:25 PM 9.9°F-12.3°C 6.8°F-14.0°C 87% 2.0 mph N3.2 kmh N 6.9 mph11.1 kmh 30.01 in1016.3 mb 0.00 in0.0 mm 0.00 in0.0 mm 0.00 in0.0 mm
09:30 PM 9.3°F-12.6°C 5.9°F-14.5°C 86% 2.9 mph W4.7 kmh W 8.9 mph14.3 kmh 30.01 in1016.3 mb 0.00 in0.0 mm 0.00 in0.0 mm 0.00 in0.0 mm
09:35 PM 8.4°F-13.1°C 4.8°F-15.1°C 85% 2.9 mph NW4.7 kmh NW 11.0 mph17.7 kmh 30.02 in1016.6 mb 0.00 in0.0 mm 0.00 in0.0 mm 0.00 in0.0 mm
09:40 PM 7.9°F-13.4°C 4.3°F-15.4°C 85% 2.9 mph W4.7 kmh W 8.1 mph13.0 kmh 30.02 in1016.6 mb 0.00 in0.0 mm 0.00 in0.0 mm 0.00 in0.0 mm
09:46 PM 7.3°F-13.7°C 3.7°F-15.7°C 85% 2.9 mph NW4.7 kmh NW 11.0 mph17.7 kmh 30.02 in1016.6 mb 0.00 in0.0 mm 0.00 in0.0 mm 0.00 in0.0 mm
09:51 PM 7.0°F-13.9°C 3.4°F-15.9°C 85% 2.9 mph N4.7 kmh N 8.1 mph13.0 kmh 30.02 in1016.6 mb 0.00 in0.0 mm 0.00 in0.0 mm 0.00 in0.0 mm
09:56 PM 6.8°F-14.0°C 3.2°F-16.0°C 85% 4.0 mph NW6.4 kmh NW 14.1 mph22.7 kmh 30.03 in1016.9 mb 0.00 in0.0 mm 0.00 in0.0 mm 0.00 in0.0 mm
10:01 PM 6.6°F-14.1°C 3.0°F-16.1°C 85% 4.0 mph W6.4 kmh W 12.1 mph19.5 kmh 30.03 in1016.9 mb 0.00 in0.0 mm 0.00 in0.0 mm 0.00 in0.0 mm
10:06 PM 6.3°F-14.3°C 2.7°F-16.3°C 85% 4.0 mph N6.4 kmh N 10.1 mph16.3 kmh 30.04 in1017.3 mb 0.00 in0.0 mm 0.00 in0.0 mm 0.00 in0.0 mm
10:11 PM 6.3°F-14.3°C 2.7°F-16.3°C 85% 4.0 mph NNW6.4 kmh NNW 8.1 mph13.0 kmh 30.04 in1017.3 mb 0.00 in0.0 mm 0.00 in0.0 mm 0.00 in0.0 mm
10:16 PM 6.3°F-14.3°C 2.7°F-16.3°C 85% 2.0 mph W3.2 kmh W 9.0 mph14.5 kmh 30.04 in1017.3 mb 0.00 in0.0 mm 0.00 in0.0 mm 0.00 in0.0 mm
10:21 PM 5.9°F-14.5°C 2.1°F-16.6°C 84% 2.9 mph N4.7 kmh N 11.0 mph17.7 kmh 30.04 in1017.3 mb 0.00 in0.0 mm 0.00 in0.0 mm 0.00 in0.0 mm
10:26 PM 5.4°F-14.8°C 1.0°F-17.2°C 82% 4.9 mph NW7.9 kmh NW 12.1 mph19.5 kmh 30.04 in1017.3 mb 0.00 in0.0 mm 0.00 in0.0 mm 0.00 in0.0 mm
10:31 PM 5.2°F-14.9°C 0.9°F-17.3°C 82% 4.0 mph NW6.4 kmh NW 13.0 mph20.9 kmh 30.05 in1017.6 mb 0.00 in0.0 mm 0.00 in0.0 mm 0.00 in0.0 mm
10:36 PM 4.8°F-15.1°C 0.5°F-17.5°C 82% 2.9 mph 4.7 kmh 13.0 mph20.9 kmh 30.05 in1017.6 mb 0.00 in0.0 mm 0.00 in0.0 mm 0.00 in0.0 mm
10:41 PM 4.6°F-15.2°C 0.1°F-17.7°C 81% 2.9 mph W4.7 kmh W 8.9 mph14.3 kmh 30.05 in1017.6 mb 0.00 in0.0 mm 0.00 in0.0 mm 0.00 in0.0 mm
10:46 PM 4.3°F-15.4°C -0.2°F-17.9°C 81% 4.0 mph WSW6.4 kmh WSW 10.1 mph16.3 kmh 30.06 in1017.9 mb 0.00 in0.0 mm 0.00 in0.0 mm 0.00 in0.0 mm
10:51 PM 4.1°F-15.5°C -0.8°F-18.2°C 80% 4.0 mph NNW6.4 kmh NNW 11.0 mph17.7 kmh 30.07 in1018.3 mb 0.00 in0.0 mm 0.00 in0.0 mm 0.00 in0.0 mm
10:56 PM 3.9°F-15.6°C -0.9°F-18.3°C 80% 4.0 mph NW6.4 kmh NW 8.9 mph14.3 kmh 30.07 in1018.3 mb 0.00 in0.0 mm 0.00 in0.0 mm 0.00 in0.0 mm
11:01 PM 3.7°F-15.7°C -1.3°F-18.5°C 79% 4.0 mph N6.4 kmh N 12.1 mph19.5 kmh 30.07 in1018.3 mb 0.00 in0.0 mm 0.00 in0.0 mm 0.00 in0.0 mm
11:06 PM 3.7°F-15.7°C -1.3°F-18.5°C 79% 4.0 mph NW6.4 kmh NW 14.1 mph22.7 kmh 30.08 in1018.6 mb 0.00 in0.0 mm 0.00 in0.0 mm 0.00 in0.0 mm
11:11 PM 3.7°F-15.7°C -1.3°F-18.5°C 79% 4.0 mph NW6.4 kmh NW 10.1 mph16.3 kmh 30.08 in1018.6 mb 0.00 in0.0 mm 0.00 in0.0 mm 0.00 in0.0 mm
11:16 PM 3.4°F-15.9°C -2.2°F-19.0°C 77% 4.9 mph N7.9 kmh N 15.0 mph24.1 kmh 30.09 in1019.0 mb 0.00 in0.0 mm 0.00 in0.0 mm 0.00 in0.0 mm
11:21 PM 3.4°F-15.9°C -1.8°F-18.8°C 78% 4.9 mph N7.9 kmh N 10.1 mph16.3 kmh 30.09 in1019.0 mb 0.00 in0.0 mm 0.00 in0.0 mm 0.00 in0.0 mm
11:26 PM 2.8°F-16.2°C -2.7°F-19.3°C 77% 4.0 mph N6.4 kmh N 10.1 mph16.3 kmh 30.10 in1019.3 mb 0.00 in0.0 mm 0.00 in0.0 mm 0.00 in0.0 mm
11:31 PM 2.5°F-16.4°C -3.3°F-19.6°C 76% 4.0 mph NW6.4 kmh NW 8.9 mph14.3 kmh 30.09 in1019.0 mb 0.00 in0.0 mm 0.00 in0.0 mm 0.00 in0.0 mm
11:36 PM 1.9°F-16.7°C -3.8°F-19.9°C 76% 4.0 mph NW6.4 kmh NW 14.1 mph22.7 kmh 30.09 in1019.0 mb 0.00 in0.0 mm 0.00 in0.0 mm 0.00 in0.0 mm
11:41 PM 1.6°F-16.9°C -4.2°F-20.1°C 76% 4.0 mph NW6.4 kmh NW 10.1 mph16.3 kmh 30.10 in1019.3 mb 0.00 in0.0 mm 0.00 in0.0 mm 0.00 in0.0 mm
11:46 PM 1.4°F-17.0°C -4.4°F-20.2°C 76% 4.9 mph NNW7.9 kmh NNW 15.0 mph24.1 kmh 30.10 in1019.3 mb 0.00 in0.0 mm 0.00 in0.0 mm 0.00 in0.0 mm
11:51 PM 1.2°F-17.1°C -4.5°F-20.3°C 76% 4.9 mph NNW7.9 kmh NNW 10.1 mph16.3 kmh 30.10 in1019.3 mb 0.00 in0.0 mm 0.00 in0.0 mm 0.00 in0.0 mm
11:56 PM 1.2°F-17.1°C -4.5°F-20.3°C 76% 2.9 mph W4.7 kmh W 8.9 mph14.3 kmh 30.11 in1019.6 mb 0.00 in0.0 mm 0.00 in0.0 mm 0.00 in0.0 mm